Time;durP1;ratioP1;P1;durP2;ratioP2;P2;SDS_P1;SDS_P2;PMS_P1;PMS_P2;Temp;Humidity;BMP_temperature;BMP_pressure;BME280_temperature;BME280_humidity;BME280_pressure;Samples;Min_cycle;Max_cycle;Signal;HPM_P1;HPM_P2
2022/04/12 00:01:13;;;;;;;6.05;3.60;;;7.00;99.90;;;;;;4949397;28;20047;-54
2022/04/12 00:03:38;;;;;;;5.95;3.60;;;7.00;99.90;;;;;;4945175;28;20112;-53
2022/04/12 00:06:07;;;;;;;8.60;4.00;;;7.00;99.90;;;;;;4943778;28;20050;-54
2022/04/12 00:08:33;;;;;;;6.68;3.42;;;6.90;99.90;;;;;;4925789;28;20595;-53
2022/04/12 00:10:59;;;;;;;7.82;3.83;;;7.00;99.90;;;;;;4927684;28;20051;-51
2022/04/12 00:13:25;;;;;;;6.47;3.42;;;6.90;99.90;;;;;;4941413;28;20059;-55
2022/04/12 00:15:51;;;;;;;7.40;3.97;;;6.90;99.90;;;;;;4946686;28;20057;-50
2022/04/12 00:21:02;;;;;;;7.10;4.00;;;6.90;99.90;;;;;;4941617;28;20549;-54
2022/04/12 00:23:28;;;;;;;10.32;4.38;;;6.80;99.90;;;;;;4909557;28;20515;-53
2022/04/12 00:25:54;;;;;;;7.40;3.90;;;6.80;99.90;;;;;;4943954;28;20046;-55
2022/04/12 00:28:21;;;;;;;8.20;4.63;;;6.80;99.90;;;;;;4945048;28;20042;-50
2022/04/12 00:30:47;;;;;;;6.15;3.92;;;6.80;99.90;;;;;;4944194;28;20050;-53
2022/04/12 00:33:13;;;;;;;6.75;4.07;;;6.80;99.90;;;;;;4933902;28;20061;-53
2022/04/12 00:35:39;;;;;;;6.65;4.38;;;6.70;99.90;;;;;;4943359;28;20079;-56
2022/04/12 00:38:13;;;;;;;8.20;4.00;;;6.70;99.90;;;;;;4947075;28;20449;-55
2022/04/12 00:40:42;;;;;;;7.03;4.15;;;6.70;99.90;;;;;;4965167;28;20563;-55
2022/04/12 00:43:08;;;;;;;8.73;4.50;;;6.60;99.90;;;;;;4949330;28;20051;-54
2022/04/12 00:45:33;;;;;;;7.13;4.00;;;6.60;99.90;;;;;;4953280;28;20054;-54
2022/04/12 00:47:59;;;;;;;7.47;4.30;;;6.70;99.90;;;;;;4934855;28;21015;-51
2022/04/12 00:50:25;;;;;;;10.85;4.18;;;6.60;99.90;;;;;;4952232;28;20047;-55
2022/04/12 00:52:53;;;;;;;9.48;4.82;;;6.60;99.90;;;;;;4951082;28;20698;-55
2022/04/12 00:55:19;;;;;;;10.60;4.57;;;6.60;99.90;;;;;;4951772;28;20050;-54
2022/04/12 00:57:45;;;;;;;7.60;3.97;;;6.60;99.90;;;;;;4948793;28;20046;-55
2022/04/12 01:00:12;;;;;;;11.35;4.18;;;6.60;99.90;;;;;;4949434;28;20047;-52
2022/04/12 01:02:39;;;;;;;8.82;5.07;;;6.60;99.90;;;;;;4950257;28;20469;-52
2022/04/12 01:05:06;;;;;;;6.70;4.38;;;6.50;99.90;;;;;;4953014;28;20050;-54
2022/04/12 01:07:33;;;;;;;11.38;5.18;;;6.50;99.90;;;;;;4950201;28;20054;-54
2022/04/12 01:09:59;;;;;;;10.63;4.90;;;6.50;99.90;;;;;;4950435;28;20047;-52
2022/04/12 01:12:28;;;;;;;8.00;4.63;;;6.50;99.90;;;;;;4950441;28;20074;-51
2022/04/12 01:14:54;;;;;;;9.43;4.75;;;6.50;99.90;;;;;;4950667;28;20055;-53
2022/04/12 01:17:20;;;;;;;8.82;4.65;;;6.40;99.90;;;;;;4947007;28;20504;-53
2022/04/12 01:19:46;;;;;;;9.35;4.82;;;6.50;99.90;;;;;;4948671;28;20089;-52
2022/04/12 01:22:24;;;;;;;8.63;4.50;;;6.40;99.90;;;;;;4931585;28;20125;-53
2022/04/12 01:24:50;;;;;;;7.22;4.80;;;6.40;99.90;;;;;;4949155;28;20051;-55
2022/04/12 01:27:16;;;;;;;9.07;5.00;;;6.40;99.90;;;;;;4949655;28;20093;-54
2022/04/12 01:29:42;;;;;;;9.27;4.97;;;6.40;99.90;;;;;;4952964;28;20054;-54
2022/04/12 01:32:08;;;;;;;8.32;4.78;;;6.40;99.90;;;;;;4949618;28;20132;-53
2022/04/12 01:34:35;;;;;;;10.00;4.97;;;6.40;99.90;;;;;;4952876;28;20046;-54
2022/04/12 01:37:05;;;;;;;9.65;4.80;;;6.30;99.90;;;;;;4949237;28;20526;-53
2022/04/12 01:39:31;;;;;;;10.50;5.00;;;6.30;99.90;;;;;;4948682;28;20516;-55
2022/04/12 01:41:58;;;;;;;9.57;5.15;;;6.30;99.90;;;;;;4947082;28;20043;-54
2022/04/12 01:44:23;;;;;;;10.13;5.28;;;6.30;99.90;;;;;;4950291;28;20051;-53
2022/04/12 01:46:49;;;;;;;9.05;5.30;;;6.30;99.90;;;;;;4950393;28;20548;-52
2022/04/12 01:49:16;;;;;;;5.97;4.85;;;6.30;99.90;;;;;;4950865;28;20059;-53
2022/04/12 01:51:42;;;;;;;8.15;5.25;;;6.20;99.90;;;;;;4936665;28;20047;-52
2022/04/12 01:54:08;;;;;;;9.07;5.20;;;6.20;99.90;;;;;;4949347;28;20568;-55
2022/04/12 01:56:34;;;;;;;10.88;5.50;;;6.20;99.90;;;;;;4945276;28;20157;-53
2022/04/12 01:59:02;;;;;;;8.52;5.40;;;6.20;99.90;;;;;;4955913;28;20046;-53
2022/04/12 02:01:28;;;;;;;10.35;5.30;;;6.20;99.90;;;;;;4950811;28;20556;-53
2022/04/12 02:03:54;;;;;;;9.95;5.63;;;6.10;99.90;;;;;;4946222;28;20070;-53
2022/04/12 02:06:21;;;;;;;9.50;5.68;;;6.10;99.90;;;;;;4942718;28;20102;-53
2022/04/12 02:08:47;;;;;;;8.55;5.80;;;6.10;99.90;;;;;;4946471;28;20051;-55
2022/04/12 02:11:12;;;;;;;8.50;5.43;;;6.10;99.90;;;;;;4948661;28;20055;-53
2022/04/12 02:13:38;;;;;;;9.52;6.05;;;6.10;99.90;;;;;;4922578;28;20051;-54
2022/04/12 02:16:04;;;;;;;8.88;5.40;;;6.10;99.90;;;;;;4925289;28;20922;-52
2022/04/12 02:18:30;;;;;;;8.30;5.88;;;6.10;99.90;;;;;;4955564;28;20083;-54
2022/04/12 02:20:56;;;;;;;10.43;6.10;;;6.00;99.90;;;;;;4923166;28;20517;-51
2022/04/12 02:23:22;;;;;;;10.27;6.20;;;6.00;99.90;;;;;;4921021;28;20054;-51
2022/04/12 02:25:48;;;;;;;11.25;6.40;;;6.00;99.90;;;;;;4926143;28;20561;-51
2022/04/12 02:28:16;;;;;;;10.80;5.93;;;6.00;99.90;;;;;;4926527;28;20054;-54
2022/04/12 02:30:43;;;;;;;13.02;6.53;;;6.00;99.90;;;;;;4923419;28;20060;-52
2022/04/12 02:33:09;;;;;;;11.55;6.47;;;6.00;99.90;;;;;;4927304;28;20747;-50
2022/04/12 02:35:35;;;;;;;9.90;6.35;;;6.00;99.90;;;;;;4926873;28;20070;-54
2022/04/12 02:38:01;;;;;;;12.45;6.45;;;6.00;99.90;;;;;;4926753;28;20679;-52
2022/04/12 02:40:27;;;;;;;12.05;6.55;;;6.00;99.90;;;;;;4923233;28;20039;-50
2022/04/12 02:42:53;;;;;;;12.85;6.20;;;6.00;99.90;;;;;;4925251;28;20047;-54
2022/04/12 02:45:19;;;;;;;10.40;6.90;;;5.90;99.90;;;;;;4923695;28;20482;-53
2022/04/12 02:47:45;;;;;;;10.45;6.57;;;5.90;99.90;;;;;;4927505;28;20166;-52
2022/04/12 02:50:11;;;;;;;19.23;6.72;;;5.90;99.90;;;;;;4925232;28;20569;-52
2022/04/12 02:52:37;;;;;;;11.90;6.80;;;5.90;99.90;;;;;;4932232;28;20055;-53
2022/04/12 02:55:03;;;;;;;8.82;6.30;;;5.90;99.90;;;;;;4928169;28;20078;-51
2022/04/12 02:57:29;;;;;;;11.00;6.40;;;5.90;99.90;;;;;;4924263;28;20063;-52
2022/04/12 02:59:55;;;;;;;11.45;7.00;;;5.90;99.90;;;;;;4923073;28;20737;-50
2022/04/12 03:02:21;;;;;;;12.50;7.43;;;5.80;99.90;;;;;;4951895;28;20313;-51
2022/04/12 03:04:46;;;;;;;12.80;6.80;;;5.90;99.90;;;;;;4925559;28;20697;-53
2022/04/12 03:07:12;;;;;;;11.30;6.90;;;5.80;99.90;;;;;;4925187;28;20084;-51
2022/04/12 03:09:38;;;;;;;11.07;6.93;;;5.80;99.90;;;;;;4924844;28;20153;-53
2022/04/12 03:12:05;;;;;;;12.27;7.38;;;5.80;99.90;;;;;;4921850;28;20383;-51
2022/04/12 03:14:31;;;;;;;14.10;7.40;;;5.80;99.90;;;;;;4927824;28;20073;-53
2022/04/12 03:16:56;;;;;;;7.97;6.88;;;5.80;99.90;;;;;;4925114;28;20050;-50
2022/04/12 03:19:22;;;;;;;11.55;7.22;;;5.80;99.90;;;;;;4932117;28;20155;-50
2022/04/12 03:21:48;;;;;;;10.88;7.80;;;5.80;99.90;;;;;;4923623;28;20167;-51
2022/04/12 03:24:14;;;;;;;12.60;7.45;;;5.80;99.90;;;;;;4928115;28;20143;-54
2022/04/12 03:26:40;;;;;;;11.43;7.70;;;5.80;99.90;;;;;;4929973;28;20054;-54
2022/04/12 03:29:07;;;;;;;10.27;7.50;;;5.80;99.90;;;;;;4928713;28;20047;-52
2022/04/12 03:31:33;;;;;;;12.57;7.88;;;5.80;99.90;;;;;;4924357;28;20106;-55
2022/04/12 03:33:59;;;;;;;11.60;7.68;;;5.80;99.90;;;;;;4925442;28;20051;-54
2022/04/12 03:36:25;;;;;;;16.48;8.02;;;5.80;99.90;;;;;;4927890;28;21914;-54
2022/04/12 03:38:52;;;;;;;11.75;7.68;;;5.80;99.90;;;;;;4928482;28;20207;-53
2022/04/12 03:41:22;;;;;;;14.30;8.00;;;5.80;99.90;;;;;;4955786;28;20058;-52
2022/04/12 03:43:48;;;;;;;14.73;8.32;;;5.70;99.90;;;;;;4923735;28;20043;-54
2022/04/12 03:46:14;;;;;;;10.98;7.90;;;5.70;99.90;;;;;;4920131;28;20055;-51
2022/04/12 03:48:40;;;;;;;11.75;8.23;;;5.70;99.90;;;;;;4957776;28;20538;-55
2022/04/12 03:51:06;;;;;;;15.55;9.20;;;5.80;99.90;;;;;;4924166;28;20063;-52
2022/04/12 03:53:32;;;;;;;15.80;8.40;;;5.70;99.90;;;;;;4927531;28;20047;-54
2022/04/12 03:55:58;;;;;;;15.00;9.23;;;5.70;99.90;;;;;;4927679;28;20062;-51
2022/04/12 03:58:24;;;;;;;12.98;9.52;;;5.70;99.90;;;;;;4924497;28;20991;-51
2022/04/12 04:00:50;;;;;;;14.63;9.38;;;5.70;99.90;;;;;;4922632;28;20050;-50
2022/04/12 04:03:17;;;;;;;15.15;9.82;;;5.70;99.90;;;;;;4960497;28;20052;-55
2022/04/12 04:05:44;;;;;;;15.30;9.43;;;5.60;99.90;;;;;;4933539;28;20094;-51
2022/04/12 04:08:11;;;;;;;14.10;8.95;;;5.70;99.90;;;;;;4931872;28;20187;-53
2022/04/12 04:10:37;;;;;;;12.40;9.23;;;5.70;99.90;;;;;;4927491;28;20051;-52
2022/04/12 04:13:08;;;;;;;13.75;8.93;;;5.70;99.90;;;;;;4922861;28;20074;-50
2022/04/12 04:15:40;;;;;;;13.02;9.40;;;5.80;99.90;;;;;;4925652;28;20043;-51
2022/04/12 04:18:07;;;;;;;12.40;9.65;;;5.70;99.90;;;;;;4928441;28;20043;-51
2022/04/12 04:20:33;;;;;;;14.85;9.80;;;5.70;99.90;;;;;;4926418;28;20039;-52
2022/04/12 04:22:59;;;;;;;12.63;8.85;;;5.70;99.90;;;;;;4923318;28;20051;-54
2022/04/12 04:25:25;;;;;;;13.85;9.23;;;5.80;99.90;;;;;;4926867;28;20172;-52
2022/04/12 04:27:52;;;;;;;15.63;9.43;;;5.80;99.90;;;;;;4924116;28;20228;-52
2022/04/12 04:30:19;;;;;;;12.98;9.00;;;5.80;99.90;;;;;;4920466;28;20106;-50
2022/04/12 04:32:46;;;;;;;13.57;9.38;;;5.70;99.90;;;;;;4926320;28;20051;-52
2022/04/12 04:35:12;;;;;;;13.95;8.88;;;5.70;99.90;;;;;;4925183;28;20058;-51
2022/04/12 04:37:46;;;;;;;14.43;9.68;;;5.70;99.90;;;;;;4924465;28;20401;-50
2022/04/12 04:40:20;;;;;;;14.40;9.63;;;5.70;99.90;;;;;;4926946;28;20051;-52
2022/04/12 04:42:47;;;;;;;12.82;9.02;;;5.70;99.90;;;;;;4958439;28;20110;-55
2022/04/12 04:45:14;;;;;;;15.80;9.60;;;5.70;99.90;;;;;;4927916;28;20050;-50
2022/04/12 04:47:58;;;;;;;14.10;9.38;;;5.60;99.90;;;;;;4928413;28;20143;-52
2022/04/12 04:50:26;;;;;;;14.77;9.75;;;5.70;99.90;;;;;;4925952;28;20500;-53
2022/04/12 04:52:52;;;;;;;13.75;9.50;;;5.60;99.90;;;;;;4927885;28;20051;-51
2022/04/12 04:55:19;;;;;;;14.30;9.82;;;5.60;99.90;;;;;;4925466;28;20061;-51
2022/04/12 04:57:46;;;;;;;13.27;9.30;;;5.60;99.90;;;;;;4928204;28;20285;-52
2022/04/12 05:00:17;;;;;;;12.88;9.48;;;5.60;99.90;;;;;;4923529;28;20048;-51
2022/04/12 05:02:48;;;;;;;15.13;9.50;;;5.60;99.90;;;;;;4924556;28;20047;-49
2022/04/12 05:05:14;;;;;;;12.75;9.43;;;5.60;99.90;;;;;;4925327;28;20054;-50
2022/04/12 05:07:44;;;;;;;15.85;10.27;;;5.70;99.90;;;;;;4925802;28;20170;-52
2022/04/12 05:10:13;;;;;;;16.10;9.55;;;5.60;99.90;;;;;;4922905;28;20142;-55
2022/04/12 05:12:39;;;;;;;13.18;9.30;;;5.60;99.90;;;;;;4934433;28;20596;-54
2022/04/12 05:15:06;;;;;;;14.00;9.90;;;5.60;99.90;;;;;;4946196;28;20055;-51
2022/04/12 05:17:32;;;;;;;12.43;9.48;;;5.60;99.90;;;;;;4942940;28;20062;-50
2022/04/12 05:19:57;;;;;;;14.73;9.73;;;5.60;99.90;;;;;;4939566;28;20043;-54
2022/04/12 05:22:24;;;;;;;14.85;9.90;;;5.60;99.90;;;;;;4939236;28;20233;-54
2022/04/12 05:24:50;;;;;;;13.38;9.73;;;5.60;99.90;;;;;;4939873;28;20193;-54
2022/04/12 05:27:16;;;;;;;12.20;9.18;;;5.60;99.90;;;;;;4946019;28;20504;-53
2022/04/12 05:29:43;;;;;;;15.77;9.15;;;5.70;99.90;;;;;;4946505;28;20420;-50
2022/04/12 05:32:10;;;;;;;13.95;9.80;;;5.70;99.90;;;;;;4945196;28;20145;-53
2022/04/12 05:34:46;;;;;;;13.85;10.02;;;5.70;99.90;;;;;;4945897;28;20062;-53
2022/04/12 05:37:12;;;;;;;15.48;9.80;;;5.80;99.90;;;;;;4947253;28;20397;-53
2022/04/12 05:39:38;;;;;;;14.63;9.75;;;5.90;99.90;;;;;;4947015;28;20053;-55
2022/04/12 05:42:04;;;;;;;17.55;9.68;;;5.90;99.90;;;;;;4953201;28;20416;-54
2022/04/12 05:44:34;;;;;;;13.80;9.32;;;6.00;99.90;;;;;;4950946;28;20046;-51
2022/04/12 05:47:01;;;;;;;12.75;9.70;;;6.10;99.90;;;;;;4951130;28;20681;-53
2022/04/12 05:49:28;;;;;;;14.25;10.13;;;6.10;99.90;;;;;;4962211;28;20059;-53
2022/04/12 05:51:54;;;;;;;14.38;9.23;;;6.10;99.90;;;;;;4945837;28;20149;-50
2022/04/12 05:54:21;;;;;;;19.05;9.90;;;6.30;99.90;;;;;;4945860;28;20098;-52
2022/04/12 05:56:46;;;;;;;14.43;9.73;;;6.30;99.90;;;;;;4944697;28;20791;-52
2022/04/12 05:59:12;;;;;;;15.15;9.30;;;6.40;99.90;;;;;;4948664;28;20051;-50
2022/04/12 06:01:38;;;;;;;15.10;9.13;;;6.40;99.90;;;;;;4946868;28;20050;-54
2022/04/12 06:04:05;;;;;;;14.27;9.65;;;6.50;99.90;;;;;;4950995;28;20051;-54
2022/04/12 06:06:32;;;;;;;14.05;9.52;;;6.50;99.90;;;;;;4929559;28;20046;-53
2022/04/12 06:08:59;;;;;;;11.63;9.05;;;6.50;99.90;;;;;;4942752;28;20539;-53
2022/04/12 06:11:25;;;;;;;15.73;9.10;;;6.60;99.90;;;;;;4941259;28;20051;-60
2022/04/12 06:13:52;;;;;;;13.95;9.50;;;6.60;99.90;;;;;;4942495;28;20405;-58
2022/04/12 06:16:18;;;;;;;13.48;9.70;;;6.60;99.90;;;;;;4946450;28;20531;-57
2022/04/12 06:18:44;;;;;;;13.57;9.55;;;6.60;99.90;;;;;;4957892;28;20050;-58
2022/04/12 06:21:10;;;;;;;13.70;8.98;;;6.70;99.90;;;;;;4946331;28;20070;-58
2022/04/12 06:23:36;;;;;;;16.63;9.63;;;6.70;99.90;;;;;;4929884;28;20070;-57
2022/04/12 06:26:02;;;;;;;13.52;9.73;;;6.80;99.90;;;;;;4962815;28;20046;-59
2022/04/12 06:28:29;;;;;;;13.32;8.93;;;6.80;99.90;;;;;;4961508;28;20078;-57
2022/04/12 06:30:57;;;;;;;13.32;10.20;;;6.90;99.90;;;;;;4936881;28;20516;-59
2022/04/12 06:33:24;;;;;;;12.35;9.15;;;7.00;99.90;;;;;;4932943;28;20050;-59
2022/04/12 06:35:50;;;;;;;13.95;9.55;;;7.00;99.90;;;;;;4947550;28;20519;-58
2022/04/12 06:38:15;;;;;;;14.18;9.60;;;7.00;99.90;;;;;;4945949;28;20046;-59
2022/04/12 06:40:44;;;;;;;15.10;9.85;;;7.10;99.90;;;;;;4961523;28;20173;-57
2022/04/12 06:43:11;;;;;;;14.45;9.35;;;7.20;99.90;;;;;;4947670;28;20074;-58
2022/04/12 06:45:37;;;;;;;13.45;9.45;;;7.20;99.90;;;;;;4951470;28;20042;-59
2022/04/12 06:48:03;;;;;;;14.38;9.77;;;7.30;99.90;;;;;;4949846;28;20046;-57
2022/04/12 06:50:29;;;;;;;14.07;9.52;;;7.30;99.90;;;;;;4943646;28;20105;-58
2022/04/12 06:52:57;;;;;;;11.80;9.15;;;7.40;99.90;;;;;;4942848;28;20042;-58
2022/04/12 06:55:23;;;;;;;12.68;9.35;;;7.40;99.90;;;;;;4944762;28;20993;-58
2022/04/12 06:57:49;;;;;;;12.65;8.95;;;7.50;99.90;;;;;;4930224;28;20066;-58
2022/04/12 07:00:19;;;;;;;13.93;8.93;;;7.50;99.90;;;;;;4940936;28;20050;-60
2022/04/12 07:02:46;;;;;;;14.88;9.95;;;7.50;99.90;;;;;;4946527;28;20575;-58
2022/04/12 07:05:12;;;;;;;14.00;8.95;;;7.60;99.90;;;;;;4942234;28;20575;-58
2022/04/12 07:07:39;;;;;;;12.80;9.43;;;7.60;99.90;;;;;;4948551;28;20046;-57
2022/04/12 07:10:07;;;;;;;18.55;10.13;;;7.60;99.90;;;;;;4946123;28;20464;-58
2022/04/12 07:12:33;;;;;;;14.73;9.77;;;7.70;99.90;;;;;;4946975;28;20092;-59
2022/04/12 07:14:59;;;;;;;15.30;10.50;;;7.70;99.90;;;;;;4948860;28;20058;-58
2022/04/12 07:17:25;;;;;;;13.23;9.10;;;7.80;99.90;;;;;;4944627;28;20543;-58
2022/04/12 07:19:51;;;;;;;17.13;10.82;;;7.80;99.90;;;;;;4944669;28;20050;-57
2022/04/12 07:22:17;;;;;;;15.95;10.07;;;7.80;99.90;;;;;;4948112;28;20589;-59
2022/04/12 07:24:43;;;;;;;15.90;10.90;;;7.90;99.90;;;;;;4917539;28;20551;-59
2022/04/12 07:27:08;;;;;;;15.77;9.95;;;7.90;99.90;;;;;;4945025;28;20057;-58
2022/04/12 07:29:34;;;;;;;14.50;9.65;;;8.00;99.90;;;;;;4945486;28;20104;-57
2022/04/12 07:32:00;;;;;;;16.52;10.35;;;8.10;99.90;;;;;;4943430;28;20050;-57
2022/04/12 07:34:26;;;;;;;18.70;10.43;;;8.10;99.90;;;;;;4947543;28;20050;-59
2022/04/12 07:36:55;;;;;;;17.13;10.23;;;8.20;99.90;;;;;;4946745;28;20050;-58
2022/04/12 07:39:22;;;;;;;17.52;10.55;;;8.40;99.90;;;;;;4946426;28;20129;-59
2022/04/12 07:41:48;;;;;;;16.42;9.75;;;8.40;99.90;;;;;;4956586;28;20039;-58
2022/04/12 07:44:16;;;;;;;16.50;10.18;;;8.60;99.90;;;;;;4948106;28;20096;-58
2022/04/12 07:46:41;;;;;;;16.02;10.50;;;8.70;99.80;;;;;;4942488;28;20054;-57
2022/04/12 07:49:08;;;;;;;17.23;10.57;;;8.80;99.60;;;;;;4945121;28;20501;-58
2022/04/12 07:51:34;;;;;;;14.27;10.73;;;9.00;99.30;;;;;;4943834;28;20054;-58
2022/04/12 07:54:04;;;;;;;17.10;10.80;;;9.10;99.00;;;;;;4950459;28;20051;-58
2022/04/12 07:56:34;;;;;;;13.45;10.38;;;9.20;98.70;;;;;;4945622;28;20190;-59
2022/04/12 07:59:00;;;;;;;13.35;10.10;;;9.40;98.50;;;;;;4934070;28;20134;-58
2022/04/12 08:01:26;;;;;;;14.15;9.90;;;9.50;98.50;;;;;;4944806;28;20148;-59
2022/04/12 08:03:52;;;;;;;16.42;10.30;;;9.60;98.20;;;;;;4946130;28;20162;-58
2022/04/12 08:06:18;;;;;;;13.43;9.63;;;9.80;98.20;;;;;;4949822;28;20682;-57
2022/04/12 08:08:44;;;;;;;16.80;10.82;;;9.90;98.00;;;;;;4930384;28;20077;-59
2022/04/12 08:11:10;;;;;;;14.45;9.98;;;10.10;97.70;;;;;;4946677;28;20546;-59
2022/04/12 08:13:36;;;;;;;14.23;10.27;;;10.10;97.20;;;;;;4927095;28;20125;-58
2022/04/12 08:16:03;;;;;;;13.43;10.10;;;10.30;96.90;;;;;;4940052;28;20051;-58
2022/04/12 08:18:29;;;;;;;14.20;10.10;;;10.30;96.70;;;;;;4943686;28;20294;-58
2022/04/12 08:20:55;;;;;;;16.08;10.40;;;10.40;96.40;;;;;;4943649;28;21068;-58
2022/04/12 08:23:25;;;;;;;14.68;10.50;;;10.50;96.30;;;;;;4933282;28;20051;-59
2022/04/12 08:25:54;;;;;;;16.83;10.23;;;10.70;96.10;;;;;;4958863;28;20045;-59
2022/04/12 08:28:20;;;;;;;19.25;10.20;;;10.80;95.80;;;;;;4945514;28;20622;-58
2022/04/12 08:30:46;;;;;;;19.27;10.48;;;11.00;95.50;;;;;;4943486;28;20122;-58
2022/04/12 08:33:13;;;;;;;14.13;9.82;;;11.10;95.00;;;;;;4956586;28;20523;-58
2022/04/12 08:35:39;;;;;;;15.77;9.95;;;11.20;93.90;;;;;;4942190;28;20512;-58
2022/04/12 08:38:05;;;;;;;12.70;9.07;;;11.30;94.10;;;;;;4946320;28;20054;-59
2022/04/12 08:40:31;;;;;;;18.17;9.98;;;11.50;93.80;;;;;;4932792;28;20503;-58
2022/04/12 08:42:59;;;;;;;13.52;9.70;;;11.60;93.30;;;;;;4945629;28;20155;-59
2022/04/12 08:45:26;;;;;;;13.57;9.63;;;11.80;93.00;;;;;;4945587;28;20058;-58
2022/04/12 08:47:52;;;;;;;14.48;9.82;;;11.80;92.80;;;;;;4946380;28;20047;-57
2022/04/12 08:50:20;;;;;;;15.00;9.70;;;11.80;91.90;;;;;;4925282;28;20142;-58
2022/04/12 08:52:47;;;;;;;13.07;9.13;;;11.90;92.10;;;;;;4943757;28;20083;-58
2022/04/12 08:55:13;;;;;;;17.17;10.15;;;12.00;92.20;;;;;;4945619;28;20050;-58
2022/04/12 08:57:39;;;;;;;15.60;9.23;;;12.10;91.90;;;;;;4948407;28;20487;-59
2022/04/12 09:00:06;;;;;;;13.48;9.20;;;12.10;91.30;;;;;;4946797;28;20137;-58
2022/04/12 09:02:33;;;;;;;18.20;10.13;;;12.20;91.40;;;;;;4947682;28;20050;-57
2022/04/12 09:04:58;;;;;;;13.85;9.52;;;12.20;91.10;;;;;;4949479;28;20050;-59
2022/04/12 09:07:26;;;;;;;13.18;9.55;;;12.30;91.00;;;;;;4947085;28;20105;-58
2022/04/12 09:10:02;;;;;;;15.00;9.05;;;12.40;90.80;;;;;;4944383;28;20114;-59
2022/04/12 09:12:32;;;;;;;13.52;9.40;;;12.50;90.70;;;;;;4950017;28;20062;-59
2022/04/12 09:14:58;;;;;;;11.95;9.52;;;12.60;89.00;;;;;;4949834;28;20109;-59
2022/04/12 09:17:44;;;;;;;13.18;9.40;;;12.60;90.00;;;;;;4951124;28;20055;-59
2022/04/12 09:20:16;;;;;;;13.48;10.32;;;12.70;90.30;;;;;;4947496;28;20136;-59
2022/04/12 09:22:46;;;;;;;12.95;9.68;;;12.70;90.30;;;;;;4949670;28;20101;-59
2022/04/12 09:25:14;;;;;;;14.63;10.38;;;12.90;90.30;;;;;;4959824;28;20093;-59
2022/04/12 09:27:44;;;;;;;13.02;9.25;;;12.90;89.60;;;;;;4914609;28;20057;-58
2022/04/12 09:30:12;;;;;;;14.32;9.77;;;13.00;89.40;;;;;;4937053;28;20090;-58
2022/04/12 09:32:39;;;;;;;15.98;9.88;;;13.20;89.50;;;;;;4948065;28;20489;-57
2022/04/12 09:35:07;;;;;;;13.73;9.90;;;13.30;89.20;;;;;;4950689;28;20981;-59
2022/04/12 09:37:36;;;;;;;12.98;9.27;;;13.50;88.70;;;;;;4946816;28;20523;-59
2022/04/12 09:40:02;;;;;;;15.15;9.52;;;13.60;88.70;;;;;;4961474;28;20126;-59
2022/04/12 09:42:44;;;;;;;16.20;9.38;;;13.80;87.80;;;;;;4950992;28;21133;-59
2022/04/12 09:45:31;;;;;;;14.98;9.75;;;13.90;87.20;;;;;;4948029;28;20058;-58
2022/04/12 09:48:05;;;;;;;15.60;9.88;;;14.10;87.10;;;;;;4951639;28;20469;-59
2022/04/12 09:50:32;;;;;;;17.88;10.07;;;14.20;85.80;;;;;;4941742;28;20498;-59
2022/04/12 09:52:59;;;;;;;15.93;10.52;;;14.40;84.90;;;;;;4946005;28;20094;-59
2022/04/12 09:55:43;;;;;;;16.73;9.60;;;14.50;84.70;;;;;;4947990;28;20081;-59
2022/04/12 09:58:12;;;;;;;16.52;9.70;;;14.70;85.40;;;;;;4945876;28;20128;-58
2022/04/12 10:00:39;;;;;;;13.13;9.20;;;14.90;84.90;;;;;;4948754;28;20141;-60
2022/04/12 10:03:10;;;;;;;12.05;9.30;;;15.00;83.40;;;;;;4949602;28;20069;-59
2022/04/12 10:05:36;;;;;;;13.38;9.35;;;15.20;82.60;;;;;;4949192;28;20047;-59
2022/04/12 10:08:10;;;;;;;17.38;9.60;;;15.20;80.90;;;;;;4945955;28;20055;-59
2022/04/12 10:10:36;;;;;;;15.95;9.43;;;15.30;80.00;;;;;;4945993;28;20051;-60
2022/04/12 10:13:02;;;;;;;12.43;9.75;;;15.40;79.20;;;;;;4944200;28;20066;-59
2022/04/12 10:15:29;;;;;;;12.95;9.55;;;15.50;78.10;;;;;;4948369;28;20042;-58
2022/04/12 10:17:55;;;;;;;14.18;9.68;;;15.60;77.80;;;;;;4948200;28;20420;-60
2022/04/12 10:20:22;;;;;;;12.18;9.43;;;15.70;77.90;;;;;;4942688;28;20253;-59
2022/04/12 10:22:49;;;;;;;15.75;9.68;;;15.80;77.10;;;;;;4926616;28;20046;-59
2022/04/12 10:25:20;;;;;;;12.18;9.15;;;15.90;75.50;;;;;;4962535;28;20082;-58
2022/04/12 10:27:48;;;;;;;17.92;9.23;;;16.00;76.20;;;;;;4944417;28;20090;-58
2022/04/12 10:30:21;;;;;;;14.80;9.93;;;16.20;74.90;;;;;;4945821;28;20073;-59
2022/04/12 10:33:09;;;;;;;15.35;9.48;;;16.30;73.00;;;;;;4945696;28;20043;-60
2022/04/12 10:35:54;;;;;;;15.38;9.40;;;16.50;72.90;;;;;;4949193;28;20050;-59
2022/04/12 10:38:22;;;;;;;14.27;9.35;;;16.60;71.60;;;;;;4946255;28;20050;-59
2022/04/12 10:40:57;;;;;;;14.38;8.75;;;16.70;71.60;;;;;;4944468;28;20097;-59
2022/04/12 10:43:33;;;;;;;14.85;9.60;;;16.80;70.50;;;;;;4947831;28;20050;-59
2022/04/12 10:46:02;;;;;;;14.52;9.82;;;16.90;70.80;;;;;;4963398;28;20090;-60
2022/04/12 10:48:31;;;;;;;14.82;9.40;;;16.90;70.70;;;;;;4944864;28;20054;-60
2022/04/12 10:50:59;;;;;;;17.02;9.43;;;17.00;69.30;;;;;;4948331;28;20106;-59
2022/04/12 10:53:37;;;;;;;13.10;9.35;;;17.10;68.70;;;;;;4963644;28;21813;-60
2022/04/12 10:56:07;;;;;;;13.65;9.32;;;17.20;67.70;;;;;;4947901;28;20059;-58
2022/04/12 10:58:36;;;;;;;14.00;9.38;;;17.20;67.90;;;;;;4946757;28;20051;-59
2022/04/12 11:01:04;;;;;;;12.85;9.10;;;17.30;67.50;;;;;;4943480;28;21046;-58
2022/04/12 11:03:42;;;;;;;11.68;8.82;;;17.30;67.40;;;;;;4944346;28;20047;-59
2022/04/12 11:06:11;;;;;;;13.90;9.15;;;17.50;68.20;;;;;;4932252;28;20170;-60
2022/04/12 11:08:47;;;;;;;11.50;8.73;;;17.70;67.10;;;;;;4945737;28;20054;-59
2022/04/12 11:11:28;;;;;;;11.70;9.45;;;17.80;66.20;;;;;;4946809;28;20054;-60
2022/04/12 11:13:55;;;;;;;13.05;8.93;;;17.80;65.40;;;;;;4930712;28;20112;-60
2022/04/12 11:16:26;;;;;;;15.75;9.68;;;17.90;65.40;;;;;;4947531;28;20097;-59
2022/04/12 11:18:56;;;;;;;13.73;9.20;;;18.00;65.10;;;;;;4946672;28;20150;-60
2022/04/12 11:21:48;;;;;;;14.95;9.68;;;18.00;65.20;;;;;;4948744;28;20073;-60
2022/04/12 11:24:15;;;;;;;13.50;9.50;;;18.10;65.30;;;;;;4944647;28;20074;-57
2022/04/12 11:27:02;;;;;;;12.95;9.50;;;18.20;65.30;;;;;;4960919;28;20129;-60
2022/04/12 11:29:29;;;;;;;13.25;9.63;;;18.30;65.50;;;;;;4948690;28;20078;-60
2022/04/12 11:31:56;;;;;;;15.88;9.95;;;18.40;65.00;;;;;;4945481;28;20777;-60
2022/04/12 11:34:27;;;;;;;12.88;9.30;;;18.50;65.00;;;;;;4946665;28;20054;-58
2022/04/12 11:36:56;;;;;;;14.32;9.85;;;18.60;64.50;;;;;;4949222;28;20054;-60
2022/04/12 11:39:24;;;;;;;13.68;9.48;;;18.60;64.90;;;;;;4948457;28;20063;-60
2022/04/12 11:41:50;;;;;;;18.83;9.73;;;18.70;65.10;;;;;;4962484;28;20169;-59
2022/04/12 11:44:21;;;;;;;10.95;8.88;;;18.80;64.60;;;;;;4949561;28;20109;-59
2022/04/12 11:46:55;;;;;;;13.18;8.68;;;18.80;63.00;;;;;;4946369;28;20053;-60
2022/04/12 11:49:27;;;;;;;15.05;9.02;;;18.80;63.20;;;;;;4962106;28;20105;-60
2022/04/12 11:51:53;;;;;;;15.95;8.88;;;18.80;62.60;;;;;;4945139;28;20886;-60
2022/04/12 11:54:25;;;;;;;13.73;8.85;;;18.80;62.10;;;;;;4944679;28;20620;-60
2022/04/12 11:57:06;;;;;;;15.00;9.02;;;18.70;61.40;;;;;;4941299;28;20055;-59
2022/04/12 11:59:37;;;;;;;12.38;9.30;;;18.70;61.50;;;;;;4939967;28;20088;-60
2022/04/12 12:02:05;;;;;;;14.48;10.05;;;18.60;62.00;;;;;;4924745;28;20055;-59
2022/04/12 12:04:33;;;;;;;12.90;9.40;;;18.60;62.60;;;;;;4945732;28;20047;-60
2022/04/12 12:07:02;;;;;;;13.02;9.02;;;18.60;62.30;;;;;;4946024;28;20505;-59
2022/04/12 12:09:29;;;;;;;15.45;9.20;;;18.70;62.60;;;;;;4944488;28;20117;-59
2022/04/12 12:12:06;;;;;;;13.65;9.88;;;18.70;62.50;;;;;;4942670;28;20090;-60
2022/04/12 12:14:32;;;;;;;13.10;9.45;;;18.70;62.90;;;;;;4944292;28;20054;-60
2022/04/12 12:17:02;;;;;;;14.70;9.13;;;18.80;63.40;;;;;;4947891;28;20047;-59
2022/04/12 12:19:29;;;;;;;12.32;9.70;;;19.00;63.80;;;;;;4958477;28;20074;-60
2022/04/12 12:21:56;;;;;;;12.77;9.82;;;19.10;63.60;;;;;;4945144;28;20043;-60
2022/04/12 12:24:21;;;;;;;14.40;9.52;;;19.10;63.10;;;;;;4946544;28;20102;-60
2022/04/12 12:26:56;;;;;;;15.15;10.32;;;19.20;63.30;;;;;;4943501;28;20137;-60
2022/04/12 12:29:24;;;;;;;13.13;10.00;;;19.20;63.40;;;;;;4943294;28;20093;-59
2022/04/12 12:31:55;;;;;;;15.93;10.82;;;19.30;63.20;;;;;;4948966;28;20389;-60
2022/04/12 12:34:29;;;;;;;16.45;10.15;;;19.40;63.10;;;;;;4947742;28;20087;-59
2022/04/12 12:36:55;;;;;;;16.80;10.52;;;19.40;63.20;;;;;;4946896;28;20097;-60
2022/04/12 12:39:21;;;;;;;15.20;10.57;;;19.40;63.30;;;;;;4947759;28;20043;-59
2022/04/12 12:41:47;;;;;;;15.15;10.20;;;19.40;63.20;;;;;;4961327;28;20485;-59
2022/04/12 12:44:13;;;;;;;13.32;9.88;;;19.50;62.40;;;;;;4965399;28;20054;-60
2022/04/12 12:46:39;;;;;;;13.07;9.80;;;19.40;61.90;;;;;;4945480;28;20516;-60
2022/04/12 12:49:13;;;;;;;19.67;9.77;;;19.40;61.70;;;;;;4932954;28;20046;-60